sensor_id;sensor_type;location;lat;lon;timestamp;pressure;altitude;pressure_sealevel;temperature;humidity
60240;BME280;46102;39.012;-7.064;2023-06-26T00:00:25;98490.00;;;27.56;38.14
60240;BME280;46102;39.012;-7.064;2023-06-26T00:02:26;98498.53;;;27.52;38.33
60240;BME280;46102;39.012;-7.064;2023-06-26T00:04:27;98494.47;;;27.53;38.39
60240;BME280;46102;39.012;-7.064;2023-06-26T00:06:27;98497.81;;;27.48;38.38
60240;BME280;46102;39.012;-7.064;2023-06-26T00:08:28;98501.19;;;27.39;38.60
60240;BME280;46102;39.012;-7.064;2023-06-26T00:10:29;98496.34;;;27.40;38.55
60240;BME280;46102;39.012;-7.064;2023-06-26T00:12:30;98486.94;;;27.27;39.01
60240;BME280;46102;39.012;-7.064;2023-06-26T00:14:32;98479.38;;;27.24;38.59
60240;BME280;46102;39.012;-7.064;2023-06-26T00:16:32;98478.59;;;27.19;38.85
60240;BME280;46102;39.012;-7.064;2023-06-26T00:18:33;98478.31;;;27.14;38.94
60240;BME280;46102;39.012;-7.064;2023-06-26T00:20:34;98473.63;;;27.07;39.18
60240;BME280;46102;39.012;-7.064;2023-06-26T00:22:35;98472.69;;;27.14;39.02
60240;BME280;46102;39.012;-7.064;2023-06-26T00:24:35;98485.03;;;27.00;39.35
60240;BME280;46102;39.012;-7.064;2023-06-26T00:26:36;98480.59;;;26.99;39.45
60240;BME280;46102;39.012;-7.064;2023-06-26T00:28:37;98487.22;;;26.89;39.37
60240;BME280;46102;39.012;-7.064;2023-06-26T00:30:38;98485.34;;;26.82;39.53
60240;BME280;46102;39.012;-7.064;2023-06-26T00:32:38;98483.72;;;26.81;39.49
60240;BME280;46102;39.012;-7.064;2023-06-26T00:34:39;98469.66;;;26.81;39.51
60240;BME280;46102;39.012;-7.064;2023-06-26T00:36:40;98479.03;;;26.74;39.34
60240;BME280;46102;39.012;-7.064;2023-06-26T00:38:43;98483.97;;;26.67;39.32
60240;BME280;46102;39.012;-7.064;2023-06-26T00:40:44;98476.81;;;26.62;39.39
60240;BME280;46102;39.012;-7.064;2023-06-26T00:42:45;98475.81;;;26.49;39.93
60240;BME280;46102;39.012;-7.064;2023-06-26T00:44:48;98481.84;;;26.47;39.97
60240;BME280;46102;39.012;-7.064;2023-06-26T00:46:49;98477.91;;;26.41;40.10
60240;BME280;46102;39.012;-7.064;2023-06-26T00:48:52;98480.09;;;26.30;40.09
60240;BME280;46102;39.012;-7.064;2023-06-26T00:50:53;98476.94;;;26.28;40.39
60240;BME280;46102;39.012;-7.064;2023-06-26T00:52:54;98478.22;;;26.23;40.72
60240;BME280;46102;39.012;-7.064;2023-06-26T00:54:57;98476.63;;;26.22;40.67
60240;BME280;46102;39.012;-7.064;2023-06-26T00:56:58;98478.25;;;26.20;40.84
60240;BME280;46102;39.012;-7.064;2023-06-26T00:59:00;98478.75;;;26.14;41.08
60240;BME280;46102;39.012;-7.064;2023-06-26T01:01:01;98483.28;;;26.05;40.84
60240;BME280;46102;39.012;-7.064;2023-06-26T01:03:03;98477.34;;;25.99;41.11
60240;BME280;46102;39.012;-7.064;2023-06-26T01:05:04;98473.84;;;25.91;41.73
60240;BME280;46102;39.012;-7.064;2023-06-26T01:07:09;98470.31;;;25.87;41.37
60240;BME280;46102;39.012;-7.064;2023-06-26T01:09:10;98473.13;;;25.84;41.86
60240;BME280;46102;39.012;-7.064;2023-06-26T01:11:11;98475.16;;;25.80;42.04
60240;BME280;46102;39.012;-7.064;2023-06-26T01:13:13;98479.31;;;25.71;41.91
60240;BME280;46102;39.012;-7.064;2023-06-26T01:15:15;98469.25;;;25.74;42.11
60240;BME280;46102;39.012;-7.064;2023-06-26T01:17:16;98471.34;;;25.66;42.62
60240;BME280;46102;39.012;-7.064;2023-06-26T01:19:24;98474.56;;;25.65;42.33
60240;BME280;46102;39.012;-7.064;2023-06-26T01:21:29;98465.84;;;25.55;42.79
60240;BME280;46102;39.012;-7.064;2023-06-26T01:23:56;98475.19;;;25.49;43.26
60240;BME280;46102;39.012;-7.064;2023-06-26T01:28:09;98474.44;;;25.41;43.47
60240;BME280;46102;39.012;-7.064;2023-06-26T01:30:11;98465.25;;;25.37;43.70
60240;BME280;46102;39.012;-7.064;2023-06-26T01:32:12;98471.25;;;25.39;43.54
60240;BME280;46102;39.012;-7.064;2023-06-26T01:34:15;98465.31;;;25.33;43.64
60240;BME280;46102;39.012;-7.064;2023-06-26T01:36:16;98471.38;;;25.28;44.09
60240;BME280;46102;39.012;-7.064;2023-06-26T01:38:19;98464.66;;;25.22;43.96
60240;BME280;46102;39.012;-7.064;2023-06-26T01:40:22;98459.50;;;25.13;44.40
60240;BME280;46102;39.012;-7.064;2023-06-26T01:42:23;98453.16;;;25.06;44.43
60240;BME280;46102;39.012;-7.064;2023-06-26T01:44:29;98461.16;;;25.07;44.55
60240;BME280;46102;39.012;-7.064;2023-06-26T01:46:37;98458.38;;;25.04;44.90
60240;BME280;46102;39.012;-7.064;2023-06-26T01:48:49;98454.88;;;24.96;44.97
60240;BME280;46102;39.012;-7.064;2023-06-26T01:50:53;98463.84;;;24.80;45.32
60240;BME280;46102;39.012;-7.064;2023-06-26T01:53:12;98456.69;;;24.72;45.52
60240;BME280;46102;39.012;-7.064;2023-06-26T01:55:40;98455.88;;;24.75;45.38
60240;BME280;46102;39.012;-7.064;2023-06-26T01:57:43;98454.72;;;24.69;45.70
60240;BME280;46102;39.012;-7.064;2023-06-26T01:59:46;98453.63;;;24.59;46.21
60240;BME280;46102;39.012;-7.064;2023-06-26T02:01:48;98450.75;;;24.63;45.92
60240;BME280;46102;39.012;-7.064;2023-06-26T02:03:49;98447.16;;;24.62;45.91
60240;BME280;46102;39.012;-7.064;2023-06-26T02:05:50;98450.44;;;24.54;46.54
60240;BME280;46102;39.012;-7.064;2023-06-26T02:07:51;98443.28;;;24.49;46.88
60240;BME280;46102;39.012;-7.064;2023-06-26T02:09:52;98452.50;;;24.42;46.96
60240;BME280;46102;39.012;-7.064;2023-06-26T02:11:53;98455.38;;;24.31;46.90
60240;BME280;46102;39.012;-7.064;2023-06-26T02:13:54;98449.03;;;24.27;47.39
60240;BME280;46102;39.012;-7.064;2023-06-26T02:15:54;98447.13;;;24.14;47.67
60240;BME280;46102;39.012;-7.064;2023-06-26T02:17:55;98449.13;;;24.13;47.74
60240;BME280;46102;39.012;-7.064;2023-06-26T02:19:56;98449.97;;;24.06;47.84
60240;BME280;46102;39.012;-7.064;2023-06-26T02:21:57;98450.78;;;24.03;48.06
60240;BME280;46102;39.012;-7.064;2023-06-26T02:23:58;98452.81;;;23.99;48.08
60240;BME280;46102;39.012;-7.064;2023-06-26T02:26:00;98452.81;;;24.03;47.83
60240;BME280;46102;39.012;-7.064;2023-06-26T02:28:00;98460.00;;;24.04;48.12
60240;BME280;46102;39.012;-7.064;2023-06-26T02:30:01;98456.41;;;24.03;48.31
60240;BME280;46102;39.012;-7.064;2023-06-26T02:32:02;98452.81;;;24.03;48.00
60240;BME280;46102;39.012;-7.064;2023-06-26T02:34:04;98457.19;;;24.04;48.20
60240;BME280;46102;39.012;-7.064;2023-06-26T02:36:04;98449.19;;;24.06;48.07
60240;BME280;46102;39.012;-7.064;2023-06-26T02:38:06;98445.59;;;24.02;48.08
60240;BME280;46102;39.012;-7.064;2023-06-26T02:40:08;98452.53;;;23.83;48.64
60240;BME280;46102;39.012;-7.064;2023-06-26T02:42:11;98446.94;;;23.79;48.67
60240;BME280;46102;39.012;-7.064;2023-06-26T02:44:12;98449.78;;;23.65;49.27
60240;BME280;46102;39.012;-7.064;2023-06-26T02:46:14;98453.78;;;23.64;49.15
60240;BME280;46102;39.012;-7.064;2023-06-26T02:48:15;98449.81;;;23.58;49.49
60240;BME280;46102;39.012;-7.064;2023-06-26T02:50:17;98451.84;;;23.54;49.67
60240;BME280;46102;39.012;-7.064;2023-06-26T02:52:36;98446.66;;;23.45;49.83
60240;BME280;46102;39.012;-7.064;2023-06-26T02:54:37;98444.28;;;23.43;49.95
60240;BME280;46102;39.012;-7.064;2023-06-26T02:56:39;98443.47;;;23.39;49.91
60240;BME280;46102;39.012;-7.064;2023-06-26T02:58:40;98441.94;;;23.31;50.17
60240;BME280;46102;39.012;-7.064;2023-06-26T03:00:41;98448.72;;;23.30;50.46
60240;BME280;46102;39.012;-7.064;2023-06-26T03:02:45;98447.97;;;23.15;50.64
60240;BME280;46102;39.012;-7.064;2023-06-26T03:04:49;98447.19;;;23.07;50.89
60240;BME280;46102;39.012;-7.064;2023-06-26T03:06:51;98444.00;;;23.05;51.33
60240;BME280;46102;39.012;-7.064;2023-06-26T03:08:52;98438.00;;;23.07;51.32
60240;BME280;46102;39.012;-7.064;2023-06-26T03:10:54;98441.63;;;23.04;51.52
60240;BME280;46102;39.012;-7.064;2023-06-26T03:12:54;98445.19;;;22.97;51.56
60240;BME280;46102;39.012;-7.064;2023-06-26T03:14:55;98441.22;;;22.95;51.64
60240;BME280;46102;39.012;-7.064;2023-06-26T03:16:56;98446.38;;;22.96;51.67
60240;BME280;46102;39.012;-7.064;2023-06-26T03:18:59;98441.63;;;23.00;51.90
60240;BME280;46102;39.012;-7.064;2023-06-26T03:21:01;98443.22;;;22.91;52.08
60240;BME280;46102;39.012;-7.064;2023-06-26T03:23:02;98442.41;;;22.86;52.19
60240;BME280;46102;39.012;-7.064;2023-06-26T03:25:03;98451.19;;;22.85;52.56
60240;BME280;46102;39.012;-7.064;2023-06-26T03:27:06;98443.22;;;22.87;52.30
60240;BME280;46102;39.012;-7.064;2023-06-26T03:29:08;98441.63;;;22.86;52.54
60240;BME280;46102;39.012;-7.064;2023-06-26T03:31:09;98454.38;;;22.87;52.60
60240;BME280;46102;39.012;-7.064;2023-06-26T03:33:10;98446.81;;;22.80;53.03
60240;BME280;46102;39.012;-7.064;2023-06-26T03:35:11;98455.59;;;22.82;53.02
60240;BME280;46102;39.012;-7.064;2023-06-26T03:37:12;98447.63;;;22.66;53.40
60240;BME280;46102;39.012;-7.064;2023-06-26T03:39:13;98448.03;;;22.69;53.55
60240;BME280;46102;39.012;-7.064;2023-06-26T03:41:14;98451.63;;;22.62;53.90
60240;BME280;46102;39.012;-7.064;2023-06-26T03:43:15;98442.03;;;22.56;53.97
60240;BME280;46102;39.012;-7.064;2023-06-26T03:45:29;98442.84;;;22.45;54.25
60240;BME280;46102;39.012;-7.064;2023-06-26T03:47:30;98443.66;;;22.39;54.94
60240;BME280;46102;39.012;-7.064;2023-06-26T03:49:31;98443.25;;;22.40;54.99
60240;BME280;46102;39.012;-7.064;2023-06-26T03:51:32;98440.03;;;22.31;55.00
60240;BME280;46102;39.012;-7.064;2023-06-26T03:53:33;98433.69;;;22.27;55.17
60240;BME280;46102;39.012;-7.064;2023-06-26T03:55:34;98434.41;;;22.13;55.59
60240;BME280;46102;39.012;-7.064;2023-06-26T03:57:35;98442.41;;;22.11;55.81
60240;BME280;46102;39.012;-7.064;2023-06-26T03:59:36;98437.19;;;22.06;55.96
60240;BME280;46102;39.012;-7.064;2023-06-26T04:01:37;98445.19;;;21.93;56.47
60240;BME280;46102;39.012;-7.064;2023-06-26T04:03:39;98447.16;;;21.89;56.47
60240;BME280;46102;39.012;-7.064;2023-06-26T04:05:41;98440.00;;;21.95;56.29
60240;BME280;46102;39.012;-7.064;2023-06-26T04:07:42;98443.19;;;21.94;56.64
60240;BME280;46102;39.012;-7.064;2023-06-26T04:09:43;98448.34;;;21.85;57.05
60240;BME280;46102;39.012;-7.064;2023-06-26T04:11:44;98434.78;;;21.87;56.92
60240;BME280;46102;39.012;-7.064;2023-06-26T04:13:44;98440.75;;;21.85;56.92
60240;BME280;46102;39.012;-7.064;2023-06-26T04:15:45;98439.16;;;21.84;57.22
60240;BME280;46102;39.012;-7.064;2023-06-26T04:17:46;98434.38;;;21.77;57.67
60240;BME280;46102;39.012;-7.064;2023-06-26T04:19:47;98439.13;;;21.70;57.88
60240;BME280;46102;39.012;-7.064;2023-06-26T04:21:47;98443.91;;;21.62;58.02
60240;BME280;46102;39.012;-7.064;2023-06-26T04:23:48;98441.09;;;21.66;58.23
60240;BME280;46102;39.012;-7.064;2023-06-26T04:25:49;98441.50;;;21.64;57.88
60240;BME280;46102;39.012;-7.064;2023-06-26T04:27:50;98435.53;;;21.62;58.27
60240;BME280;46102;39.012;-7.064;2023-06-26T04:29:50;98443.91;;;21.62;58.30
60240;BME280;46102;39.012;-7.064;2023-06-26T04:31:51;98448.69;;;21.65;58.01
60240;BME280;46102;39.012;-7.064;2023-06-26T04:33:52;98438.72;;;21.68;57.95
60240;BME280;46102;39.012;-7.064;2023-06-26T04:35:55;98439.09;;;21.59;58.58
60240;BME280;46102;39.012;-7.064;2023-06-26T04:37:55;98441.09;;;21.55;58.59
60240;BME280;46102;39.012;-7.064;2023-06-26T04:39:56;98439.88;;;21.56;58.29
60240;BME280;46102;39.012;-7.064;2023-06-26T04:41:57;98445.44;;;21.49;58.52
60240;BME280;46102;39.012;-7.064;2023-06-26T04:43:58;98442.25;;;21.47;59.00
60240;BME280;46102;39.012;-7.064;2023-06-26T04:45:58;98442.19;;;21.39;59.40
60240;BME280;46102;39.012;-7.064;2023-06-26T04:47:59;98444.16;;;21.39;59.32
60240;BME280;46102;39.012;-7.064;2023-06-26T04:50:03;98440.56;;;21.38;59.54
60240;BME280;46102;39.012;-7.064;2023-06-26T04:52:04;98444.56;;;21.37;59.61
60240;BME280;46102;39.012;-7.064;2023-06-26T04:54:05;98448.91;;;21.31;59.60
60240;BME280;46102;39.012;-7.064;2023-06-26T04:56:05;98447.78;;;21.39;59.08
60240;BME280;46102;39.012;-7.064;2023-06-26T04:58:06;98438.97;;;21.30;59.69
60240;BME280;46102;39.012;-7.064;2023-06-26T05:00:07;98444.13;;;21.28;59.60
60240;BME280;46102;39.012;-7.064;2023-06-26T05:02:11;98442.50;;;21.27;60.29
60240;BME280;46102;39.012;-7.064;2023-06-26T05:04:15;98449.66;;;21.17;60.03
60240;BME280;46102;39.012;-7.064;2023-06-26T05:06:16;98450.47;;;21.21;60.60
60240;BME280;46102;39.012;-7.064;2023-06-26T05:08:22;98444.38;;;21.05;60.94
60240;BME280;46102;39.012;-7.064;2023-06-26T05:10:23;98447.19;;;21.05;60.86
60240;BME280;46102;39.012;-7.064;2023-06-26T05:12:23;98449.13;;;20.97;60.82
60240;BME280;46102;39.012;-7.064;2023-06-26T05:14:24;98445.97;;;20.99;60.99
60240;BME280;46102;39.012;-7.064;2023-06-26T05:16:25;98445.19;;;21.02;61.02
60240;BME280;46102;39.012;-7.064;2023-06-26T05:18:26;98445.97;;;21.03;60.76
60240;BME280;46102;39.012;-7.064;2023-06-26T05:20:26;98446.34;;;20.97;61.14
60240;BME280;46102;39.012;-7.064;2023-06-26T05:22:27;98452.31;;;20.96;61.17
60240;BME280;46102;39.012;-7.064;2023-06-26T05:24:29;98455.13;;;20.99;61.36
60240;BME280;46102;39.012;-7.064;2023-06-26T05:26:30;98454.34;;;20.99;61.48
60240;BME280;46102;39.012;-7.064;2023-06-26T05:28:31;98454.75;;;21.01;61.32
60240;BME280;46102;39.012;-7.064;2023-06-26T05:30:32;98455.53;;;21.02;61.45
60240;BME280;46102;39.012;-7.064;2023-06-26T05:32:37;98458.31;;;21.02;61.31
60240;BME280;46102;39.012;-7.064;2023-06-26T05:34:38;98467.91;;;21.04;61.60
60240;BME280;46102;39.012;-7.064;2023-06-26T05:36:41;98467.88;;;20.97;61.76
60240;BME280;46102;39.012;-7.064;2023-06-26T05:38:44;98475.44;;;21.00;61.60
60240;BME280;46102;39.012;-7.064;2023-06-26T05:40:45;98469.44;;;20.98;61.87
60240;BME280;46102;39.012;-7.064;2023-06-26T05:42:46;98472.69;;;21.04;61.54
60240;BME280;46102;39.012;-7.064;2023-06-26T05:44:47;98476.22;;;20.97;61.57
60240;BME280;46102;39.012;-7.064;2023-06-26T05:46:48;98477.44;;;20.99;61.66
60240;BME280;46102;39.012;-7.064;2023-06-26T05:48:48;98479.03;;;21.00;61.45
60240;BME280;46102;39.012;-7.064;2023-06-26T05:50:50;98476.69;;;21.06;61.39
60240;BME280;46102;39.012;-7.064;2023-06-26T05:52:51;98482.75;;;21.19;61.44
60240;BME280;46102;39.012;-7.064;2023-06-26T05:54:52;98482.34;;;21.24;61.00
60240;BME280;46102;39.012;-7.064;2023-06-26T05:56:56;98487.16;;;21.27;60.91
60240;BME280;46102;39.012;-7.064;2023-06-26T05:58:59;98481.16;;;21.25;60.95
60240;BME280;46102;39.012;-7.064;2023-06-26T06:01:01;98483.59;;;21.34;60.73
60240;BME280;46102;39.012;-7.064;2023-06-26T06:03:02;98486.88;;;21.50;60.63
60240;BME280;46102;39.012;-7.064;2023-06-26T06:05:03;98484.91;;;21.54;60.18
60240;BME280;46102;39.012;-7.064;2023-06-26T06:07:04;98484.56;;;21.63;60.08
60240;BME280;46102;39.012;-7.064;2023-06-26T06:09:05;98485.78;;;21.69;59.39
60240;BME280;46102;39.012;-7.064;2023-06-26T06:11:06;98489.38;;;21.77;59.37
60240;BME280;46102;39.012;-7.064;2023-06-26T06:13:07;98491.81;;;21.86;59.08
60240;BME280;46102;39.012;-7.064;2023-06-26T06:15:08;98488.25;;;21.96;58.45
60240;BME280;46102;39.012;-7.064;2023-06-26T06:17:09;98488.28;;;22.07;58.00
60240;BME280;46102;39.012;-7.064;2023-06-26T06:19:09;98500.69;;;22.16;57.93
60240;BME280;46102;39.012;-7.064;2023-06-26T06:21:13;98493.53;;;22.26;57.53
60240;BME280;46102;39.012;-7.064;2023-06-26T06:23:14;98498.72;;;22.35;57.19
60240;BME280;46102;39.012;-7.064;2023-06-26T06:25:14;98497.53;;;22.47;56.82
60240;BME280;46102;39.012;-7.064;2023-06-26T06:27:16;98502.34;;;22.57;56.68
60240;BME280;46102;39.012;-7.064;2023-06-26T06:29:17;98507.16;;;22.63;56.31
60240;BME280;46102;39.012;-7.064;2023-06-26T06:31:19;98503.53;;;22.74;55.98
60240;BME280;46102;39.012;-7.064;2023-06-26T06:33:20;98507.53;;;22.83;55.86
60240;BME280;46102;39.012;-7.064;2023-06-26T06:35:21;98512.31;;;22.94;55.64
60240;BME280;46102;39.012;-7.064;2023-06-26T06:37:22;98519.16;;;23.03;55.28
60240;BME280;46102;39.012;-7.064;2023-06-26T06:39:23;98521.50;;;23.16;55.07
60240;BME280;46102;39.012;-7.064;2023-06-26T06:41:23;98515.88;;;23.30;54.43
60240;BME280;46102;39.012;-7.064;2023-06-26T06:43:24;98517.47;;;23.42;54.30
60240;BME280;46102;39.012;-7.064;2023-06-26T06:45:25;98516.63;;;23.56;53.86
60240;BME280;46102;39.012;-7.064;2023-06-26T06:47:25;98524.94;;;23.70;53.19
60240;BME280;46102;39.012;-7.064;2023-06-26T06:49:26;98528.94;;;23.80;53.11
60240;BME280;46102;39.012;-7.064;2023-06-26T06:51:27;98524.91;;;23.88;52.84
60240;BME280;46102;39.012;-7.064;2023-06-26T06:53:28;98526.88;;;23.91;52.92
60240;BME280;46102;39.012;-7.064;2023-06-26T06:55:28;98522.47;;;23.97;52.57
60240;BME280;46102;39.012;-7.064;2023-06-26T06:57:29;98531.22;;;24.06;52.47
60240;BME280;46102;39.012;-7.064;2023-06-26T06:59:30;98527.53;;;24.20;52.39
60240;BME280;46102;39.012;-7.064;2023-06-26T07:01:31;98527.88;;;24.29;51.81
60240;BME280;46102;39.012;-7.064;2023-06-26T07:03:31;98519.00;;;24.42;51.75
60240;BME280;46102;39.012;-7.064;2023-06-26T07:05:32;98532.59;;;24.50;51.20
60240;BME280;46102;39.012;-7.064;2023-06-26T07:07:34;98530.44;;;24.72;50.72
60240;BME280;46102;39.012;-7.064;2023-06-26T07:09:35;98533.97;;;24.77;50.59
60240;BME280;46102;39.012;-7.064;2023-06-26T07:11:36;98529.13;;;24.81;50.52
60240;BME280;46102;39.012;-7.064;2023-06-26T07:13:37;98535.06;;;24.90;50.51
60240;BME280;46102;39.012;-7.064;2023-06-26T07:15:38;98524.06;;;25.10;50.34
60240;BME280;46102;39.012;-7.064;2023-06-26T07:17:38;98527.50;;;25.28;49.62
60240;BME280;46102;39.012;-7.064;2023-06-26T07:19:40;98527.00;;;25.41;49.67
60240;BME280;46102;39.012;-7.064;2023-06-26T07:21:40;98531.25;;;25.56;49.11
60240;BME280;46102;39.012;-7.064;2023-06-26T07:23:42;98526.72;;;25.66;48.67
60240;BME280;46102;39.012;-7.064;2023-06-26T07:25:43;98524.59;;;25.73;48.58
60240;BME280;46102;39.012;-7.064;2023-06-26T07:27:44;98528.84;;;25.89;48.14
60240;BME280;46102;39.012;-7.064;2023-06-26T07:29:45;98531.91;;;26.02;47.68
60240;BME280;46102;39.012;-7.064;2023-06-26T07:31:46;98524.13;;;26.13;47.55
60240;BME280;46102;39.012;-7.064;2023-06-26T07:33:46;98526.44;;;26.22;47.59
60240;BME280;46102;39.012;-7.064;2023-06-26T07:35:47;98527.75;;;26.41;47.22
60240;BME280;46102;39.012;-7.064;2023-06-26T07:37:48;98523.53;;;26.56;46.63
60240;BME280;46102;39.012;-7.064;2023-06-26T07:39:49;98522.56;;;26.66;46.31
60240;BME280;46102;39.012;-7.064;2023-06-26T07:41:50;98524.00;;;26.78;46.28
60240;BME280;46102;39.012;-7.064;2023-06-26T07:43:50;98521.78;;;26.89;46.18
60240;BME280;46102;39.012;-7.064;2023-06-26T07:45:51;98525.50;;;27.06;45.88
60240;BME280;46102;39.012;-7.064;2023-06-26T07:47:54;98522.03;;;27.22;45.63
60240;BME280;46102;39.012;-7.064;2023-06-26T07:49:55;98534.56;;;27.41;45.26
60240;BME280;46102;39.012;-7.064;2023-06-26T07:51:56;98533.06;;;27.56;44.71
60240;BME280;46102;39.012;-7.064;2023-06-26T07:53:57;98531.53;;;27.72;44.31
60240;BME280;46102;39.012;-7.064;2023-06-26T07:55:57;98534.81;;;27.90;44.15
60240;BME280;46102;39.012;-7.064;2023-06-26T07:57:58;98538.47;;;28.07;43.80
60240;BME280;46102;39.012;-7.064;2023-06-26T07:59:59;98534.59;;;28.37;43.06
60240;BME280;46102;39.012;-7.064;2023-06-26T08:02:00;98541.06;;;28.54;42.42
60240;BME280;46102;39.012;-7.064;2023-06-26T08:04:01;98539.59;;;28.66;42.35
60240;BME280;46102;39.012;-7.064;2023-06-26T08:06:03;98544.00;;;28.83;41.90
60240;BME280;46102;39.012;-7.064;2023-06-26T08:08:03;98531.91;;;29.16;41.04
60240;BME280;46102;39.012;-7.064;2023-06-26T08:10:05;98543.44;;;29.38;40.97
60240;BME280;46102;39.012;-7.064;2023-06-26T08:12:06;98528.94;;;29.52;40.66
60240;BME280;46102;39.012;-7.064;2023-06-26T08:14:07;98531.19;;;29.74;40.53
60240;BME280;46102;39.012;-7.064;2023-06-26T08:16:08;98533.47;;;29.92;39.37
60240;BME280;46102;39.012;-7.064;2023-06-26T08:18:08;98538.03;;;30.02;39.28
60240;BME280;46102;39.012;-7.064;2023-06-26T08:20:09;98533.22;;;30.15;39.71
60240;BME280;46102;39.012;-7.064;2023-06-26T08:22:11;98530.75;;;30.30;39.02
60240;BME280;46102;39.012;-7.064;2023-06-26T08:24:12;98540.84;;;30.31;38.98
60240;BME280;46102;39.012;-7.064;2023-06-26T08:26:14;98526.66;;;30.44;38.90
60240;BME280;46102;39.012;-7.064;2023-06-26T08:28:14;98527.47;;;30.57;38.93
60240;BME280;46102;39.012;-7.064;2023-06-26T08:30:16;98528.00;;;30.78;38.49
60240;BME280;46102;39.012;-7.064;2023-06-26T08:32:16;98528.69;;;31.07;37.64
60240;BME280;46102;39.012;-7.064;2023-06-26T08:34:17;98523.97;;;31.26;37.32
60240;BME280;46102;39.012;-7.064;2023-06-26T08:36:18;98516.66;;;31.51;37.02
60240;BME280;46102;39.012;-7.064;2023-06-26T08:38:19;98527.38;;;31.56;36.63
60240;BME280;46102;39.012;-7.064;2023-06-26T08:40:21;98521.78;;;31.65;36.46
60240;BME280;46102;39.012;-7.064;2023-06-26T08:42:22;98523.28;;;31.79;36.12
60240;BME280;46102;39.012;-7.064;2023-06-26T08:44:23;98519.06;;;31.84;35.91
60240;BME280;46102;39.012;-7.064;2023-06-26T08:46:25;98517.44;;;31.95;35.23
60240;BME280;46102;39.012;-7.064;2023-06-26T08:48:26;98519.81;;;31.97;35.05
60240;BME280;46102;39.012;-7.064;2023-06-26T08:50:30;98524.44;;;32.04;35.29
60240;BME280;46102;39.012;-7.064;2023-06-26T08:52:37;98520.69;;;32.07;35.23
60240;BME280;46102;39.012;-7.064;2023-06-26T08:54:45;98527.31;;;32.13;35.11
60240;BME280;46102;39.012;-7.064;2023-06-26T08:56:47;98524.91;;;32.33;34.74
60240;BME280;46102;39.012;-7.064;2023-06-26T08:58:49;98532.66;;;32.42;34.34
60240;BME280;46102;39.012;-7.064;2023-06-26T09:00:51;98525.44;;;32.50;34.25
60240;BME280;46102;39.012;-7.064;2023-06-26T09:02:52;98533.69;;;32.58;34.53
60240;BME280;46102;39.012;-7.064;2023-06-26T09:04:53;98520.19;;;32.71;34.11
60240;BME280;46102;39.012;-7.064;2023-06-26T09:06:54;98519.31;;;32.92;34.01
60240;BME280;46102;39.012;-7.064;2023-06-26T09:08:55;98517.31;;;33.21;33.59
60240;BME280;46102;39.012;-7.064;2023-06-26T09:10:56;98521.56;;;33.34;32.93
60240;BME280;46102;39.012;-7.064;2023-06-26T09:12:56;98525.84;;;33.48;32.87
60240;BME280;46102;39.012;-7.064;2023-06-26T09:14:58;98527.09;;;33.56;32.73
60240;BME280;46102;39.012;-7.064;2023-06-26T09:17:00;98526.81;;;33.64;32.63
60240;BME280;46102;39.012;-7.064;2023-06-26T09:19:00;98519.88;;;33.74;32.60
60240;BME280;46102;39.012;-7.064;2023-06-26T09:21:08;98520.31;;;33.82;32.06
60240;BME280;46102;39.012;-7.064;2023-06-26T09:23:10;98520.00;;;33.98;31.79
60240;BME280;46102;39.012;-7.064;2023-06-26T09:25:11;98517.28;;;33.94;31.80
60240;BME280;46102;39.012;-7.064;2023-06-26T09:27:11;98520.28;;;33.91;31.87
60240;BME280;46102;39.012;-7.064;2023-06-26T09:29:13;98520.28;;;33.91;32.03
60240;BME280;46102;39.012;-7.064;2023-06-26T09:31:15;98516.00;;;34.05;31.92
60240;BME280;46102;39.012;-7.064;2023-06-26T09:33:18;98510.16;;;34.17;31.89
60240;BME280;46102;39.012;-7.064;2023-06-26T09:35:20;98502.66;;;34.38;31.54
60240;BME280;46102;39.012;-7.064;2023-06-26T09:37:24;98501.75;;;34.56;31.26
60240;BME280;46102;39.012;-7.064;2023-06-26T09:39:25;98498.91;;;34.66;31.48
60240;BME280;46102;39.012;-7.064;2023-06-26T09:41:26;98503.53;;;34.87;31.07
60240;BME280;46102;39.012;-7.064;2023-06-26T09:43:27;98499.81;;;34.96;30.78
60240;BME280;46102;39.012;-7.064;2023-06-26T09:45:28;98501.16;;;35.10;30.40
60240;BME280;46102;39.012;-7.064;2023-06-26T09:47:32;98502.81;;;35.26;30.06
60240;BME280;46102;39.012;-7.064;2023-06-26T09:49:34;98501.88;;;35.43;29.78
60240;BME280;46102;39.012;-7.064;2023-06-26T09:51:36;98501.69;;;35.47;29.88
60240;BME280;46102;39.012;-7.064;2023-06-26T09:53:37;98497.69;;;35.69;29.90
60240;BME280;46102;39.012;-7.064;2023-06-26T09:55:38;98496.84;;;35.92;29.58
60240;BME280;46102;39.012;-7.064;2023-06-26T09:57:39;98498.13;;;36.06;29.31
60240;BME280;46102;39.012;-7.064;2023-06-26T09:59:42;98502.53;;;36.37;28.89
60240;BME280;46102;39.012;-7.064;2023-06-26T10:01:45;98498.94;;;36.57;28.58
60240;BME280;46102;39.012;-7.064;2023-06-26T10:03:47;98497.75;;;36.63;28.40
60240;BME280;46102;39.012;-7.064;2023-06-26T10:05:48;98496.66;;;36.76;28.20
60240;BME280;46102;39.012;-7.064;2023-06-26T10:07:50;98500.75;;;36.89;28.12
60240;BME280;46102;39.012;-7.064;2023-06-26T10:09:55;98501.97;;;37.03;28.17
60240;BME280;46102;39.012;-7.064;2023-06-26T10:12:03;98500.06;;;37.15;27.62
60240;BME280;46102;39.012;-7.064;2023-06-26T10:14:07;98498.41;;;37.08;27.97
60240;BME280;46102;39.012;-7.064;2023-06-26T10:16:10;98489.31;;;37.30;27.79
60240;BME280;46102;39.012;-7.064;2023-06-26T10:18:13;98498.69;;;37.52;27.65
60240;BME280;46102;39.012;-7.064;2023-06-26T10:20:15;98496.75;;;37.63;26.62
60240;BME280;46102;39.012;-7.064;2023-06-26T10:22:17;98501.16;;;37.64;26.80
60240;BME280;46102;39.012;-7.064;2023-06-26T10:24:24;98494.59;;;37.84;26.82
60240;BME280;46102;39.012;-7.064;2023-06-26T10:26:28;98493.50;;;38.02;26.89
60240;BME280;46102;39.012;-7.064;2023-06-26T10:28:30;98504.38;;;38.24;26.39
60240;BME280;46102;39.012;-7.064;2023-06-26T10:30:34;98489.84;;;38.33;25.90
60240;BME280;46102;39.012;-7.064;2023-06-26T10:32:36;98493.19;;;38.58;25.61
60240;BME280;46102;39.012;-7.064;2023-06-26T10:34:38;98495.84;;;38.73;25.47
60240;BME280;46102;39.012;-7.064;2023-06-26T10:36:39;98499.75;;;38.70;25.12
60240;BME280;46102;39.012;-7.064;2023-06-26T10:38:54;98495.63;;;38.77;25.47